Terminal Aerodrome Forecast
Issued by NWS Des Moines, IA

Home | Current Version | Previous Version | Text Only | Print | Product List | Glossary On
Versions: 1 2 3 4 5 6 7 8 9 10 11 12 13 14 15 16 17 18 19
000
FTUS43 KDMX 230520
TAFDSM
TAF
KDSM 230520Z 2306/2406 10007KT P6SM BKN120
     FM231400 13012KT P6SM OVC100
     FM231700 15018G28KT P6SM VCSH SCT060 OVC100
     FM240000 12016G25KT P6SM VCSH OVC060=

USA.gov is the U.S. government's official web portal to all federal, state and local government web resources and services.